createdAt,value
2018-09-26T00:01:40.541Z,3.69
2018-09-26T00:04:25.084Z,3.72
2018-09-26T00:07:00.904Z,3.69
2018-09-26T00:09:35.542Z,3.76
2018-09-26T00:12:10.684Z,3.76
2018-09-26T00:14:45.036Z,3.84
2018-09-26T00:17:19.948Z,3.82
2018-09-26T00:19:54.760Z,3.79
2018-09-26T00:22:29.657Z,3.81
2018-09-26T00:25:04.017Z,3.77
2018-09-26T00:27:38.908Z,3.77
2018-09-26T00:30:13.296Z,3.78
2018-09-26T00:32:47.852Z,3.80
2018-09-26T00:35:22.343Z,3.82
2018-09-26T00:37:57.193Z,3.94
2018-09-26T00:40:31.885Z,4.01
2018-09-26T00:43:06.516Z,4.00
2018-09-26T00:45:41.027Z,3.95
2018-09-26T00:48:15.571Z,4.02
2018-09-26T00:50:50.358Z,3.99
2018-09-26T00:53:24.852Z,3.95
2018-09-26T00:55:59.180Z,3.91
2018-09-26T00:58:33.658Z,3.87
2018-09-26T01:01:09.092Z,3.86
2018-09-26T01:03:46.704Z,3.87
2018-09-26T01:06:21.207Z,3.73
2018-09-26T01:08:56.243Z,3.66
2018-09-26T01:11:30.746Z,3.60
2018-09-26T01:14:05.887Z,3.53
2018-09-26T01:16:40.520Z,3.52
2018-09-26T01:19:15.329Z,3.52
2018-09-26T01:21:50.469Z,3.51
2018-09-26T01:24:25.074Z,3.48
2018-09-26T01:26:59.696Z,3.44
2018-09-26T01:29:34.171Z,3.41
2018-09-26T01:32:08.618Z,3.35
2018-09-26T01:34:43.153Z,3.36
2018-09-26T01:37:17.694Z,3.29
2018-09-26T01:39:52.468Z,3.24
2018-09-26T01:42:27.115Z,3.23
2018-09-26T01:45:01.838Z,3.20
2018-09-26T01:47:36.963Z,3.17
2018-09-26T01:50:11.579Z,3.13
2018-09-26T01:52:46.439Z,3.11
2018-09-26T01:55:20.988Z,3.10
2018-09-26T01:57:55.793Z,3.05
2018-09-26T02:00:30.887Z,2.99
2018-09-26T02:03:05.505Z,3.02
2018-09-26T02:05:40.428Z,2.99
2018-09-26T02:08:15.296Z,2.96
2018-09-26T02:10:49.793Z,2.94
2018-09-26T02:13:24.220Z,2.89
2018-09-26T02:15:58.771Z,2.88
2018-09-26T02:18:33.250Z,2.88
2018-09-26T02:21:07.685Z,2.82
2018-09-26T02:23:42.137Z,2.84
2018-09-26T02:26:17.200Z,2.99
2018-09-26T02:28:51.925Z,2.95
2018-09-26T02:31:26.655Z,2.91
2018-09-26T02:34:01.088Z,2.80
2018-09-26T02:36:35.439Z,2.81
2018-09-26T02:39:10.097Z,2.87
2018-09-26T02:41:44.744Z,2.82
2018-09-26T02:44:19.119Z,2.78
2018-09-26T02:46:53.564Z,2.73
2018-09-26T02:49:27.988Z,2.65
2018-09-26T02:52:03.101Z,2.61
2018-09-26T02:54:37.660Z,2.55
2018-09-26T02:57:12.637Z,2.57
2018-09-26T02:59:47.128Z,2.56
2018-09-26T03:02:21.622Z,2.58
2018-09-26T03:04:56.437Z,2.65
2018-09-26T03:07:30.948Z,2.70
2018-09-26T03:10:05.536Z,2.74
2018-09-26T03:12:40.280Z,2.74
2018-09-26T03:15:14.796Z,2.68
2018-09-26T03:17:49.839Z,2.70
2018-09-26T03:20:24.266Z,2.65
2018-09-26T03:22:58.708Z,2.63
2018-09-26T03:25:33.441Z,2.63
2018-09-26T03:28:07.975Z,2.63
2018-09-26T03:30:42.404Z,2.63
2018-09-26T03:33:17.347Z,2.59
2018-09-26T03:35:52.506Z,2.57
2018-09-26T03:38:27.273Z,2.57
2018-09-26T03:41:01.858Z,2.49
2018-09-26T03:43:36.416Z,2.44
2018-09-26T03:46:11.025Z,2.42
2018-09-26T03:48:45.643Z,2.56
2018-09-26T03:51:20.130Z,2.57
2018-09-26T03:53:54.940Z,2.52
2018-09-26T03:56:29.662Z,2.45
2018-09-26T03:59:04.421Z,2.34
2018-09-26T04:01:47.735Z,2.28
2018-09-26T04:04:22.264Z,2.21
2018-09-26T04:07:11.184Z,2.27
2018-09-26T04:09:45.604Z,2.20
2018-09-26T04:12:20.010Z,2.23
2018-09-26T04:14:54.390Z,2.31
2018-09-26T04:17:29.771Z,2.30
2018-09-26T04:20:04.650Z,2.23
2018-09-26T04:22:39.092Z,2.18
2018-09-26T04:25:13.796Z,2.23
2018-09-26T04:27:48.351Z,2.17
2018-09-26T04:30:31.272Z,2.18
2018-09-26T04:33:06.141Z,2.03
2018-09-26T04:35:40.739Z,2.14
2018-09-26T04:38:15.736Z,2.22
2018-09-26T04:40:50.537Z,2.15
2018-09-26T04:43:25.325Z,2.15
2018-09-26T04:46:01.573Z,2.16
2018-09-26T04:48:36.392Z,2.15
2018-09-26T04:51:10.904Z,2.14
2018-09-26T04:53:45.497Z,2.09
2018-09-26T04:56:19.969Z,2.12
2018-09-26T04:58:54.593Z,2.13
2018-09-26T05:01:29.452Z,2.10
2018-09-26T05:04:04.571Z,2.16
2018-09-26T05:06:39.355Z,2.11
2018-09-26T05:09:13.936Z,2.09
2018-09-26T05:11:48.764Z,2.03
2018-09-26T05:14:23.244Z,2.03
2018-09-26T05:16:58.207Z,2.06
2018-09-26T05:19:32.980Z,2.06
2018-09-26T05:22:08.376Z,2.08
2018-09-26T05:24:42.947Z,2.08
2018-09-26T05:27:17.724Z,2.18
2018-09-26T05:29:52.735Z,2.19
2018-09-26T05:32:27.260Z,2.28
2018-09-26T05:35:01.816Z,2.25
2018-09-26T05:37:36.310Z,2.24
2018-09-26T05:40:11.023Z,2.26
2018-09-26T05:42:45.859Z,2.24
2018-09-26T05:45:20.832Z,2.33
2018-09-26T05:47:55.516Z,2.37
2018-09-26T05:50:31.447Z,2.43
2018-09-26T05:53:06.745Z,2.45
2018-09-26T05:55:41.776Z,2.52
2018-09-26T05:58:16.176Z,2.54
2018-09-26T06:00:50.972Z,2.58
2018-09-26T06:03:26.092Z,2.65
2018-09-26T06:06:00.467Z,2.70
2018-09-26T06:08:35.100Z,2.77
2018-09-26T06:11:10.224Z,2.81
2018-09-26T06:13:44.976Z,2.91
2018-09-26T06:16:19.447Z,3.00
2018-09-26T06:18:53.868Z,3.02
2018-09-26T06:21:28.484Z,3.09
2018-09-26T06:24:02.904Z,3.20
2018-09-26T06:26:37.791Z,3.23
2018-09-26T06:29:12.183Z,3.38
2018-09-26T06:31:46.504Z,3.49
2018-09-26T06:34:21.264Z,3.50
2018-09-26T06:36:55.928Z,3.55
2018-09-26T06:39:30.618Z,3.63
2018-09-26T06:42:05.433Z,3.70
2018-09-26T06:44:39.877Z,3.90
2018-09-26T06:47:14.388Z,4.07
2018-09-26T06:49:48.829Z,4.12
2018-09-26T06:52:23.405Z,4.15
2018-09-26T06:54:57.808Z,4.15
2018-09-26T06:57:32.543Z,4.39
2018-09-26T07:00:07.538Z,4.53
2018-09-26T07:02:42.840Z,4.64
2018-09-26T07:05:17.258Z,4.79
2018-09-26T07:07:51.860Z,4.86
2018-09-26T07:10:26.288Z,4.91
2018-09-26T07:13:01.036Z,5.06
2018-09-26T07:15:36.108Z,5.16
2018-09-26T07:18:11.056Z,5.30
2018-09-26T07:20:45.699Z,5.44
2018-09-26T07:23:20.452Z,5.68
2018-09-26T07:25:55.219Z,5.90
2018-09-26T07:28:29.624Z,6.18
2018-09-26T07:31:05.133Z,6.42
2018-09-26T07:33:39.953Z,6.72
2018-09-26T07:36:14.555Z,7.02
2018-09-26T07:38:49.196Z,7.27
2018-09-26T07:41:23.834Z,7.59
2018-09-26T07:43:58.348Z,7.90
2018-09-26T07:46:32.787Z,8.30
2018-09-26T07:49:07.972Z,8.62
2018-09-26T07:51:42.901Z,8.90
2018-09-26T07:54:18.015Z,9.14
2018-09-26T07:56:52.580Z,9.37
2018-09-26T07:59:26.920Z,9.67
2018-09-26T08:02:01.536Z,10.05
2018-09-26T08:04:36.127Z,10.32
2018-09-26T08:07:11.387Z,10.40
2018-09-26T08:09:45.931Z,10.37
2018-09-26T08:12:20.500Z,10.44
2018-09-26T08:14:54.911Z,10.59
2018-09-26T08:17:29.297Z,10.85
2018-09-26T08:20:03.828Z,11.03
2018-09-26T08:22:38.183Z,11.33
2018-09-26T08:25:12.746Z,11.59
2018-09-26T08:27:47.231Z,11.88
2018-09-26T08:30:22.093Z,12.07
2018-09-26T08:32:56.624Z,12.41
2018-09-26T08:35:31.360Z,12.65
2018-09-26T08:38:06.357Z,12.94
2018-09-26T08:40:41.133Z,13.26
2018-09-26T08:43:15.447Z,13.59
2018-09-26T08:45:50.452Z,13.94
2018-09-26T08:48:25.224Z,14.19
2018-09-26T08:50:59.723Z,13.88
2018-09-26T08:53:34.063Z,13.66
2018-09-26T08:56:09.342Z,13.49
2018-09-26T08:58:44.655Z,13.62
2018-09-26T09:01:24.532Z,13.92
2018-09-26T09:03:59.151Z,14.36
2018-09-26T09:06:33.661Z,14.51
2018-09-26T09:09:09.364Z,14.75
2018-09-26T09:11:44.174Z,14.97
2018-09-26T09:14:18.976Z,14.97
2018-09-26T09:16:53.568Z,14.79
2018-09-26T09:19:28.108Z,14.69
2018-09-26T09:22:03.309Z,15.04
2018-09-26T09:24:37.963Z,15.36
2018-09-26T09:27:13.251Z,15.68
2018-09-26T09:29:47.888Z,16.11
2018-09-26T09:32:22.363Z,16.12
2018-09-26T09:34:57.381Z,16.11
2018-09-26T09:37:31.688Z,16.23
2018-09-26T09:40:06.432Z,16.18
2018-09-26T09:42:41.199Z,16.05
2018-09-26T09:45:16.220Z,16.07
2018-09-26T09:47:50.659Z,16.22
2018-09-26T09:50:25.496Z,16.44
2018-09-26T09:53:00.471Z,16.20
2018-09-26T09:55:35.093Z,16.24
2018-09-26T09:58:09.755Z,16.43
2018-09-26T10:00:49.503Z,16.48
2018-09-26T10:03:23.882Z,16.71
2018-09-26T10:05:59.016Z,16.54
2018-09-26T10:08:33.344Z,16.92
2018-09-26T10:11:08.311Z,17.21
2018-09-26T10:13:43.524Z,17.18
2018-09-26T10:16:18.111Z,17.28
2018-09-26T10:18:52.448Z,17.79
2018-09-26T10:21:26.922Z,17.94
2018-09-26T10:24:01.388Z,18.03
2018-09-26T10:26:35.731Z,18.20
2018-09-26T10:29:10.925Z,18.00
2018-09-26T10:31:45.324Z,17.12
2018-09-26T10:34:20.092Z,16.69
2018-09-26T10:36:55.672Z,16.59
2018-09-26T10:39:30.583Z,16.69
2018-09-26T10:42:05.323Z,16.91
2018-09-26T10:44:40.271Z,17.21
2018-09-26T10:47:14.840Z,17.31
2018-09-26T10:49:49.367Z,17.36
2018-09-26T10:52:23.729Z,17.72
2018-09-26T10:54:58.428Z,17.63
2018-09-26T10:57:32.924Z,17.43
2018-09-26T11:00:08.264Z,17.35
2018-09-26T11:02:43.142Z,17.43
2018-09-26T11:05:17.900Z,17.75
2018-09-26T11:07:52.411Z,18.25
2018-09-26T11:10:27.780Z,18.84
2018-09-26T11:13:02.384Z,18.96
2018-09-26T11:15:38.059Z,19.36
2018-09-26T11:18:12.723Z,19.74
2018-09-26T11:20:47.260Z,19.82
2018-09-26T11:23:21.737Z,19.68
2018-09-26T11:25:56.052Z,19.55
2018-09-26T11:28:30.349Z,19.76
2018-09-26T11:31:04.959Z,19.98
2018-09-26T11:33:39.332Z,19.85
2018-09-26T11:36:14.284Z,19.98
2018-09-26T11:38:48.663Z,20.25
2018-09-26T11:41:23.520Z,20.35
2018-09-26T11:43:58.224Z,20.46
2018-09-26T11:46:33.923Z,20.69
2018-09-26T11:49:08.546Z,20.61
2018-09-26T11:51:43.404Z,20.59
2018-09-26T11:54:17.845Z,20.59
2018-09-26T11:56:52.625Z,20.39
2018-09-26T11:59:27.311Z,20.39
2018-09-26T12:02:01.707Z,20.73
2018-09-26T12:04:36.369Z,20.72
2018-09-26T12:07:11.095Z,20.47
2018-09-26T12:09:45.655Z,20.63
2018-09-26T12:12:20.755Z,20.71
2018-09-26T12:14:55.435Z,21.05
2018-09-26T12:17:29.839Z,20.95
2018-09-26T12:20:04.511Z,20.77
2018-09-26T12:22:39.785Z,20.91
2018-09-26T12:25:14.570Z,20.79
2018-09-26T12:27:49.395Z,20.82
2018-09-26T12:30:24.154Z,20.69
2018-09-26T12:32:59.043Z,20.42
2018-09-26T12:35:33.868Z,20.16
2018-09-26T12:38:08.286Z,20.34
2018-09-26T12:40:42.941Z,20.48
2018-09-26T12:43:17.421Z,20.98
2018-09-26T12:45:52.246Z,21.22
2018-09-26T12:48:27.281Z,20.82
2018-09-26T12:51:01.888Z,20.44
2018-09-26T12:53:36.464Z,20.69
2018-09-26T12:56:11.069Z,20.78
2018-09-26T12:58:47.603Z,20.98
2018-09-26T13:01:22.145Z,21.36
2018-09-26T13:03:56.653Z,21.15
2018-09-26T13:06:31.040Z,20.98
2018-09-26T13:09:06.392Z,20.97
2018-09-26T13:11:41.242Z,21.13
2018-09-26T13:14:16.252Z,21.25
2018-09-26T13:16:51.459Z,20.70
2018-09-26T13:19:25.904Z,20.80
2018-09-26T13:22:00.264Z,20.80
2018-09-26T13:24:34.620Z,20.49
2018-09-26T13:27:09.533Z,20.39
2018-09-26T13:29:44.168Z,20.18
2018-09-26T13:32:18.762Z,20.21
2018-09-26T13:34:53.411Z,19.96
2018-09-26T13:37:28.127Z,19.66
2018-09-26T13:40:02.799Z,19.48
2018-09-26T13:42:37.228Z,19.49
2018-09-26T13:45:11.662Z,19.34
2018-09-26T13:47:46.096Z,19.29
2018-09-26T13:50:20.449Z,19.28
2018-09-26T13:53:06.448Z,19.18
2018-09-26T13:55:40.835Z,19.32
2018-09-26T13:58:15.200Z,19.49
2018-09-26T14:00:50.700Z,19.66
2018-09-26T14:03:25.124Z,19.86
2018-09-26T14:05:59.607Z,20.23
2018-09-26T14:08:34.641Z,20.47
2018-09-26T14:11:09.248Z,20.60
2018-09-26T14:13:43.712Z,20.87
2018-09-26T14:16:18.367Z,21.04
2018-09-26T14:18:52.970Z,21.00
2018-09-26T14:21:27.891Z,20.87
2018-09-26T14:24:02.432Z,20.76
2018-09-26T14:26:37.778Z,21.01
2018-09-26T14:29:12.358Z,21.07
2018-09-26T14:31:46.953Z,20.89
2018-09-26T14:34:21.380Z,20.78
2018-09-26T14:36:55.860Z,20.89
2018-09-26T14:39:30.441Z,20.91
2018-09-26T14:42:04.988Z,20.76
2018-09-26T14:44:39.508Z,20.69
2018-09-26T14:47:14.130Z,20.42
2018-09-26T14:49:48.806Z,20.29
2018-09-26T14:52:23.296Z,20.14
2018-09-26T14:54:58.013Z,20.02
2018-09-26T14:57:32.681Z,19.87
2018-09-26T15:00:09.044Z,20.02
2018-09-26T15:02:46.396Z,19.94
2018-09-26T15:05:20.872Z,19.96
2018-09-26T15:07:55.981Z,20.08
2018-09-26T15:10:30.437Z,19.99
2018-09-26T15:13:05.196Z,19.98
2018-09-26T15:15:39.884Z,19.90
2018-09-26T15:18:14.925Z,19.87
2018-09-26T15:20:49.535Z,19.63
2018-09-26T15:23:24.180Z,19.55
2018-09-26T15:25:58.828Z,19.32
2018-09-26T15:28:34.009Z,19.25
2018-09-26T15:31:09.115Z,19.08
2018-09-26T15:33:51.676Z,19.03
2018-09-26T15:36:34.021Z,19.07
2018-09-26T15:39:10.399Z,18.91
2018-09-26T15:41:45.098Z,18.80
2018-09-26T15:44:20.028Z,18.65
2018-09-26T15:46:54.635Z,18.65
2018-09-26T15:49:29.480Z,18.58
2018-09-26T15:52:04.494Z,18.53
2018-09-26T15:54:39.312Z,18.47
2018-09-26T15:57:13.964Z,18.37
2018-09-26T15:59:48.535Z,18.32
2018-09-26T16:02:23.185Z,18.25
2018-09-26T16:04:57.811Z,17.96
2018-09-26T16:07:32.335Z,17.84
2018-09-26T16:10:06.671Z,17.58
2018-09-26T16:12:41.622Z,17.41
2018-09-26T16:15:16.165Z,17.27
2018-09-26T16:17:51.173Z,17.17
2018-09-26T16:20:25.774Z,17.09
2018-09-26T16:23:00.501Z,16.98
2018-09-26T16:25:35.526Z,16.86
2018-09-26T16:28:10.033Z,16.76
2018-09-26T16:30:44.756Z,16.57
2018-09-26T16:33:19.250Z,16.42
2018-09-26T16:35:53.843Z,16.25
2018-09-26T16:38:28.286Z,16.08
2018-09-26T16:41:03.122Z,15.88
2018-09-26T16:43:37.422Z,15.73
2018-09-26T16:46:12.266Z,15.55
2018-09-26T16:48:46.907Z,15.39
2018-09-26T16:51:21.437Z,15.25
2018-09-26T16:53:55.936Z,15.11
2018-09-26T16:59:31.202Z,14.69
2018-09-26T17:02:05.642Z,14.49
2018-09-26T17:04:40.450Z,14.37
2018-09-26T17:07:15.138Z,14.30
2018-09-26T17:09:49.967Z,14.23
2018-09-26T17:12:24.726Z,14.08
2018-09-26T17:14:59.449Z,13.95
2018-09-26T17:17:34.302Z,13.83
2018-09-26T17:20:09.043Z,13.72
2018-09-26T17:22:49.612Z,13.62
2018-09-26T17:25:24.488Z,13.44
2018-09-26T17:27:59.899Z,13.32
2018-09-26T17:30:35.156Z,13.21
2018-09-26T17:33:09.487Z,13.12
2018-09-26T17:35:44.079Z,13.06
2018-09-26T17:38:19.330Z,12.96
2018-09-26T17:40:54.361Z,12.86
2018-09-26T17:43:28.961Z,12.76
2018-09-26T17:46:04.640Z,12.66
2018-09-26T17:48:40.237Z,12.60
2018-09-26T17:51:15.301Z,12.54
2018-09-26T17:53:50.556Z,12.44
2018-09-26T17:56:25.306Z,12.39
2018-09-26T17:59:00.852Z,12.32
2018-09-26T18:01:35.571Z,12.34
2018-09-26T18:04:11.139Z,12.23
2018-09-26T18:06:45.882Z,12.17
2018-09-26T18:09:20.660Z,12.08
2018-09-26T18:11:55.213Z,11.99
2018-09-26T18:14:30.712Z,11.92
2018-09-26T18:17:05.648Z,11.93
2018-09-26T18:19:42.429Z,11.87
2018-09-26T18:22:17.119Z,11.84
2018-09-26T18:24:51.581Z,11.84
2018-09-26T18:27:26.083Z,11.80
2018-09-26T18:30:00.829Z,11.76
2018-09-26T18:32:35.471Z,11.72
2018-09-26T18:35:10.617Z,11.67
2018-09-26T18:37:45.275Z,11.65
2018-09-26T18:40:19.939Z,11.60
2018-09-26T18:42:54.628Z,11.58
2018-09-26T18:45:29.013Z,11.54
2018-09-26T18:48:03.740Z,11.49
2018-09-26T18:50:38.699Z,11.41
2018-09-26T18:53:13.211Z,11.33
2018-09-26T18:55:47.888Z,11.29
2018-09-26T18:58:22.320Z,11.25
2018-09-26T19:00:56.632Z,11.21
2018-09-26T19:03:31.431Z,11.16
2018-09-26T19:06:06.291Z,11.14
2018-09-26T19:08:40.687Z,11.15
2018-09-26T19:11:21.664Z,11.07
2018-09-26T19:13:56.509Z,11.00
2018-09-26T19:16:31.276Z,10.94
2018-09-26T19:19:05.851Z,10.90
2018-09-26T19:21:41.823Z,10.83
2018-09-26T19:24:20.363Z,10.77
2018-09-26T19:26:55.405Z,10.81
2018-09-26T19:29:30.632Z,10.83
2018-09-26T19:32:06.259Z,10.91
2018-09-26T19:34:40.780Z,10.83
2018-09-26T19:37:15.252Z,10.83
2018-09-26T19:39:51.690Z,10.85
2018-09-26T19:42:26.004Z,10.85
2018-09-26T19:45:00.739Z,10.86
2018-09-26T19:47:35.624Z,10.88
2018-09-26T19:50:10.872Z,10.85
2018-09-26T19:52:45.323Z,10.78
2018-09-26T19:55:19.783Z,10.78
2018-09-26T19:57:54.159Z,10.80
2018-09-26T20:00:28.620Z,10.76
2018-09-26T20:03:03.056Z,10.73
2018-09-26T20:05:39.135Z,10.70
2018-09-26T20:08:15.188Z,10.68
2018-09-26T20:10:49.549Z,10.65
2018-09-26T20:13:23.877Z,10.67
2018-09-26T20:15:58.545Z,10.71
2018-09-26T20:18:33.280Z,10.70
2018-09-26T20:21:08.392Z,10.74
2018-09-26T20:23:42.703Z,10.71
2018-09-26T20:26:17.533Z,10.67
2018-09-26T20:28:52.269Z,10.68
2018-09-26T20:31:27.116Z,10.62
2018-09-26T20:34:01.911Z,10.60
2018-09-26T20:36:36.825Z,10.61
2018-09-26T20:39:12.543Z,10.56
2018-09-26T20:41:47.129Z,10.51
2018-09-26T20:44:21.556Z,10.45
2018-09-26T20:46:56.413Z,10.40
2018-09-26T20:49:31.094Z,10.40
2018-09-26T20:52:05.876Z,10.39
2018-09-26T20:54:40.483Z,10.38
2018-09-26T20:57:15.434Z,10.36
2018-09-26T20:59:50.742Z,10.38
2018-09-26T21:02:25.279Z,10.33
2018-09-26T21:04:59.737Z,10.35
2018-09-26T21:07:34.255Z,10.27
2018-09-26T21:10:09.743Z,10.21
2018-09-26T21:12:44.919Z,10.18
2018-09-26T21:15:19.287Z,10.13
2018-09-26T21:17:54.323Z,10.08
2018-09-26T21:20:29.227Z,10.05
2018-09-26T21:23:03.558Z,10.05
2018-09-26T21:25:38.620Z,10.03
2018-09-26T21:28:13.027Z,9.99
2018-09-26T21:30:47.531Z,9.93
2018-09-26T21:33:22.204Z,9.89
2018-09-26T21:35:56.980Z,9.92
2018-09-26T21:38:31.461Z,9.88
2018-09-26T21:41:05.824Z,9.88
2018-09-26T21:43:40.450Z,9.87
2018-09-26T21:46:14.897Z,9.85
2018-09-26T21:48:49.333Z,9.82
2018-09-26T21:51:24.019Z,9.84
2018-09-26T21:53:58.323Z,9.77
2018-09-26T21:56:33.195Z,9.82
2018-09-26T21:59:07.675Z,9.80
2018-09-26T22:01:42.493Z,9.76
2018-09-26T22:04:16.904Z,9.74
2018-09-26T22:06:51.224Z,9.74
2018-09-26T22:09:25.876Z,9.66
2018-09-26T22:12:00.627Z,9.61
2018-09-26T22:14:35.203Z,9.63
2018-09-26T22:17:10.460Z,9.56
2018-09-26T22:19:44.823Z,9.59
2018-09-26T22:22:20.016Z,9.54
2018-09-26T22:24:54.467Z,9.62
2018-09-26T22:27:28.907Z,9.71
2018-09-26T22:30:03.199Z,9.71
2018-09-26T22:32:37.690Z,9.73
2018-09-26T22:35:12.016Z,9.68
2018-09-26T22:37:46.528Z,9.72
2018-09-26T22:40:21.327Z,9.75
2018-09-26T22:42:55.716Z,9.76
2018-09-26T22:45:30.228Z,9.77
2018-09-26T22:48:04.748Z,9.87
2018-09-26T22:50:39.504Z,9.90
2018-09-26T22:53:14.017Z,9.93
2018-09-26T22:55:48.464Z,9.89
2018-09-26T22:58:22.743Z,9.95
2018-09-26T23:00:57.079Z,9.91
2018-09-26T23:03:31.399Z,9.88
2018-09-26T23:06:06.560Z,9.89
2018-09-26T23:08:41.214Z,9.81
2018-09-26T23:11:15.800Z,9.83
2018-09-26T23:13:50.511Z,9.84
2018-09-26T23:16:25.623Z,9.81
2018-09-26T23:19:00.065Z,9.79
2018-09-26T23:21:34.348Z,9.74
2018-09-26T23:24:08.876Z,9.71
2018-09-26T23:26:43.171Z,9.68
2018-09-26T23:29:18.016Z,9.67
2018-09-26T23:31:52.368Z,9.60
2018-09-26T23:34:26.784Z,9.57
2018-09-26T23:37:01.452Z,9.49
2018-09-26T23:39:35.908Z,9.42
2018-09-26T23:42:10.392Z,9.42
2018-09-26T23:44:44.791Z,9.39
2018-09-26T23:47:19.186Z,9.31
2018-09-26T23:49:53.490Z,9.32
2018-09-26T23:52:27.955Z,9.26
2018-09-26T23:55:02.635Z,9.23
2018-09-26T23:57:37.343Z,9.20
